AAL61 KDFW-RJAA
Flight info
| Callsign | AAL61 |
|---|---|
| Flight time | N/A |
| Altitude | 34000 |
| Route | HRPER3 HULZE DCT FTI DCT BCE DCT KU48M DCT KATTS DCT MVA DCT YERIN/N0477F360 DCT WEBGO DCT RBL DCT FOT DCT LATNE DCT 43N130W 47N140W 49N150W 50N160W/N0483F380 50N170W 49N180E 45N170E/N0474F400 41N160E EMRON ADNAP Y807 NOGIX Y802 OLDIV Y809 SUPOK |
| Aircraft | B772/H-SDE2E3FGHIJ5LORVWXY/LB1D1 |
Departure
| Time | N/A |
|---|---|
| Airport | Dallas Fort Worth International Airport (KDFW) |
Arrival
| Time | 2026-05-08 04:25 |
|---|---|
| Airport | Narita International Airport (RJAA) |
| Time | Latitude | Longitude | Altitude | Speed | Heading |
|---|---|---|---|---|---|
| 2026-05-08 02:17 | 40.00599 | 156.11629 | 40002 ft | 410 kts | 251° |
| 2026-05-08 02:18 | 39.98659 | 156.04623 | 40007 ft | 411 kts | 251° |
| 2026-05-08 02:18 | 39.96713 | 155.97617 | 39996 ft | 411 kts | 251° |
| 2026-05-08 02:19 | 39.94762 | 155.90614 | 39990 ft | 411 kts | 250° |
| 2026-05-08 02:19 | 39.92820 | 155.83660 | 39991 ft | 411 kts | 250° |
| 2026-05-08 02:20 | 39.90862 | 155.76669 | 39993 ft | 411 kts | 250° |
| 2026-05-08 02:20 | 39.88897 | 155.69668 | 39988 ft | 411 kts | 250° |
| 2026-05-08 02:21 | 39.86930 | 155.62682 | 39994 ft | 412 kts | 250° |
| 2026-05-08 02:21 | 39.84945 | 155.55651 | 39976 ft | 413 kts | 250° |
| 2026-05-08 02:22 | 39.82962 | 155.48647 | 39987 ft | 412 kts | 250° |
| 2026-05-08 02:22 | 39.80991 | 155.41704 | 39984 ft | 412 kts | 250° |
| 2026-05-08 02:23 | 39.79005 | 155.34726 | 39979 ft | 411 kts | 250° |
| 2026-05-08 02:23 | 39.77015 | 155.27752 | 39979 ft | 411 kts | 250° |
| 2026-05-08 02:24 | 39.75022 | 155.20785 | 39971 ft | 411 kts | 250° |
| 2026-05-08 02:24 | 39.73025 | 155.13827 | 39974 ft | 411 kts | 250° |
| 2026-05-08 02:25 | 39.71027 | 155.06881 | 39972 ft | 411 kts | 250° |
| 2026-05-08 02:25 | 39.69022 | 154.99928 | 39971 ft | 411 kts | 250° |
| 2026-05-08 02:26 | 39.67012 | 154.92978 | 39972 ft | 411 kts | 249° |
| 2026-05-08 02:26 | 39.65007 | 154.86062 | 39970 ft | 412 kts | 249° |
| 2026-05-08 02:27 | 39.62985 | 154.79109 | 39963 ft | 412 kts | 249° |
| 2026-05-08 02:27 | 39.60958 | 154.72154 | 39958 ft | 413 kts | 249° |
| 2026-05-08 02:28 | 39.58923 | 154.65188 | 39951 ft | 413 kts | 249° |
| 2026-05-08 02:28 | 39.56882 | 154.58226 | 39954 ft | 413 kts | 249° |
| 2026-05-08 02:29 | 39.54838 | 154.51268 | 39953 ft | 413 kts | 249° |
| 2026-05-08 02:29 | 39.52788 | 154.44309 | 39950 ft | 414 kts | 249° |
| 2026-05-08 02:30 | 39.50733 | 154.37350 | 39956 ft | 414 kts | 249° |
| 2026-05-08 02:30 | 39.48671 | 154.30388 | 39951 ft | 414 kts | 249° |
| 2026-05-08 02:31 | 39.46616 | 154.23463 | 39966 ft | 415 kts | 249° |
| 2026-05-08 02:31 | 39.44542 | 154.16495 | 39952 ft | 415 kts | 249° |
| 2026-05-08 02:32 | 39.42458 | 154.09513 | 39950 ft | 416 kts | 249° |
| 2026-05-08 02:32 | 39.40372 | 154.02539 | 39947 ft | 416 kts | 248° |
| 2026-05-08 02:33 | 39.38281 | 153.95568 | 39942 ft | 416 kts | 248° |
| 2026-05-08 02:33 | 39.36181 | 153.88588 | 39940 ft | 417 kts | 248° |
| 2026-05-08 02:34 | 39.34077 | 153.81610 | 39938 ft | 417 kts | 248° |
| 2026-05-08 02:34 | 39.31982 | 153.74681 | 39940 ft | 417 kts | 248° |
| 2026-05-08 02:35 | 39.29868 | 153.67705 | 39933 ft | 417 kts | 248° |
| 2026-05-08 02:35 | 39.27748 | 153.60726 | 39931 ft | 418 kts | 248° |
| 2026-05-08 02:36 | 39.25981 | 153.54926 | 39930 ft | 418 kts | 248° |
| 2026-05-08 02:36 | 39.23850 | 153.47946 | 39928 ft | 418 kts | 248° |
| 2026-05-08 02:37 | 39.21710 | 153.40954 | 39930 ft | 419 kts | 248° |
| 2026-05-08 02:37 | 39.19565 | 153.33963 | 39922 ft | 420 kts | 248° |
| 2026-05-08 02:38 | 39.17411 | 153.26962 | 39921 ft | 420 kts | 248° |
| 2026-05-08 02:38 | 39.15251 | 153.19961 | 39920 ft | 421 kts | 248° |
| 2026-05-08 02:39 | 39.13085 | 153.12954 | 39916 ft | 421 kts | 248° |
| 2026-05-08 02:39 | 39.10911 | 153.05943 | 39927 ft | 422 kts | 247° |
| 2026-05-08 02:40 | 39.08732 | 152.98931 | 39924 ft | 422 kts | 247° |
| 2026-05-08 02:40 | 39.06544 | 152.91911 | 39922 ft | 423 kts | 247° |
| 2026-05-08 02:41 | 39.04350 | 152.84888 | 39918 ft | 423 kts | 247° |
| 2026-05-08 02:41 | 39.02150 | 152.77862 | 39907 ft | 423 kts | 247° |
| 2026-05-08 02:42 | 38.99959 | 152.70884 | 39914 ft | 424 kts | 247° |
| 2026-05-08 02:42 | 38.97746 | 152.63853 | 39911 ft | 424 kts | 247° |
| 2026-05-08 02:43 | 38.95529 | 152.56827 | 39914 ft | 424 kts | 247° |
| 2026-05-08 02:43 | 38.93305 | 152.49797 | 39901 ft | 425 kts | 247° |
| 2026-05-08 02:44 | 38.91077 | 152.42772 | 39914 ft | 425 kts | 247° |
| 2026-05-08 02:44 | 38.88839 | 152.35734 | 39918 ft | 425 kts | 247° |
| 2026-05-08 02:45 | 38.86598 | 152.28704 | 39915 ft | 426 kts | 247° |
| 2026-05-08 02:45 | 38.84353 | 152.21679 | 39917 ft | 426 kts | 246° |
| 2026-05-08 02:46 | 38.82103 | 152.14656 | 39899 ft | 426 kts | 246° |
| 2026-05-08 02:46 | 38.79850 | 152.07639 | 39899 ft | 425 kts | 246° |
| 2026-05-08 02:47 | 38.77590 | 152.00619 | 39900 ft | 425 kts | 246° |
| 2026-05-08 02:47 | 38.75343 | 151.93659 | 39912 ft | 425 kts | 246° |
| 2026-05-08 02:48 | 38.73076 | 151.86653 | 39900 ft | 426 kts | 246° |
| 2026-05-08 02:48 | 38.70801 | 151.79639 | 39899 ft | 427 kts | 246° |
| 2026-05-08 02:49 | 38.68518 | 151.72618 | 39907 ft | 427 kts | 246° |
| 2026-05-08 02:49 | 38.66232 | 151.65606 | 39904 ft | 427 kts | 246° |
| 2026-05-08 02:50 | 38.63936 | 151.58579 | 39908 ft | 428 kts | 246° |
| 2026-05-08 02:50 | 38.61635 | 151.51554 | 39909 ft | 428 kts | 246° |
| 2026-05-08 02:51 | 38.59327 | 151.44526 | 39904 ft | 428 kts | 246° |
| 2026-05-08 02:51 | 38.57030 | 151.37551 | 39904 ft | 428 kts | 246° |
| 2026-05-08 02:52 | 38.54714 | 151.30531 | 39905 ft | 428 kts | 246° |
| 2026-05-08 02:52 | 38.52393 | 151.23515 | 39905 ft | 429 kts | 246° |
| 2026-05-08 02:53 | 38.50067 | 151.16504 | 39900 ft | 429 kts | 246° |
| 2026-05-08 02:53 | 38.47737 | 151.09495 | 39903 ft | 429 kts | 246° |
| 2026-05-08 02:54 | 38.45403 | 151.02491 | 39908 ft | 429 kts | 246° |
| 2026-05-08 02:54 | 38.43064 | 150.95490 | 39902 ft | 429 kts | 246° |
| 2026-05-08 02:55 | 38.39547 | 150.84992 | 39905 ft | 429 kts | 246° |
| 2026-05-08 02:56 | 38.37209 | 150.78035 | 39902 ft | 429 kts | 246° |
| 2026-05-08 02:56 | 38.34851 | 150.71037 | 39907 ft | 430 kts | 246° |
| 2026-05-08 02:57 | 38.32488 | 150.64039 | 39903 ft | 430 kts | 246° |
| 2026-05-08 02:57 | 38.30119 | 150.57040 | 39904 ft | 430 kts | 246° |
| 2026-05-08 02:58 | 38.27745 | 150.50046 | 39898 ft | 430 kts | 246° |
| 2026-05-08 02:58 | 38.25365 | 150.43049 | 39906 ft | 431 kts | 246° |
| 2026-05-08 02:59 | 38.22977 | 150.36045 | 39915 ft | 431 kts | 246° |
| 2026-05-08 02:59 | 38.20585 | 150.29047 | 39911 ft | 432 kts | 246° |
| 2026-05-08 03:00 | 38.18186 | 150.22043 | 39913 ft | 432 kts | 246° |
| 2026-05-08 03:00 | 38.15797 | 150.15084 | 39909 ft | 432 kts | 246° |
| 2026-05-08 03:01 | 38.13389 | 150.08083 | 39910 ft | 432 kts | 246° |
| 2026-05-08 03:01 | 38.11019 | 150.01069 | 39913 ft | 432 kts | 249° |
| 2026-05-08 03:02 | 38.09362 | 149.93722 | 39915 ft | 433 kts | 255° |
| 2026-05-08 03:02 | 38.07976 | 149.86273 | 39912 ft | 433 kts | 255° |
| 2026-05-08 03:03 | 38.06570 | 149.78836 | 39925 ft | 434 kts | 255° |
| 2026-05-08 03:03 | 38.05148 | 149.71390 | 39913 ft | 434 kts | 255° |
| 2026-05-08 03:04 | 38.03728 | 149.63993 | 39918 ft | 434 kts | 255° |
| 2026-05-08 03:04 | 38.02294 | 149.56556 | 39914 ft | 434 kts | 255° |
| 2026-05-08 03:05 | 38.00858 | 149.49135 | 39906 ft | 432 kts | 255° |
| 2026-05-08 03:05 | 37.99425 | 149.41753 | 39906 ft | 431 kts | 255° |
| 2026-05-08 03:06 | 37.97991 | 149.34395 | 39906 ft | 429 kts | 255° |
| 2026-05-08 03:06 | 37.96554 | 149.27047 | 39907 ft | 429 kts | 255° |
| 2026-05-08 03:07 | 37.95114 | 149.19711 | 39907 ft | 429 kts | 255° |
| 2026-05-08 03:07 | 37.93667 | 149.12364 | 39909 ft | 430 kts | 255° |
| 2026-05-08 03:08 | 37.92222 | 149.05053 | 39906 ft | 430 kts | 254° |
| 2026-05-08 03:08 | 37.90764 | 148.97702 | 39905 ft | 430 kts | 254° |
| 2026-05-08 03:09 | 37.89303 | 148.90362 | 39899 ft | 430 kts | 254° |
| 2026-05-08 03:09 | 37.87838 | 148.83031 | 39898 ft | 429 kts | 254° |
| 2026-05-08 03:10 | 37.86371 | 148.75713 | 39895 ft | 429 kts | 254° |
| 2026-05-08 03:10 | 37.84900 | 148.68397 | 39896 ft | 429 kts | 254° |
| 2026-05-08 03:11 | 37.83423 | 148.61081 | 39894 ft | 429 kts | 254° |
| 2026-05-08 03:11 | 37.81938 | 148.53750 | 39890 ft | 430 kts | 254° |
| 2026-05-08 03:12 | 37.80450 | 148.46430 | 39889 ft | 430 kts | 254° |
| 2026-05-08 03:12 | 37.78966 | 148.39155 | 39891 ft | 430 kts | 254° |
| 2026-05-08 03:13 | 37.77467 | 148.31830 | 39891 ft | 430 kts | 254° |
| 2026-05-08 03:13 | 37.75963 | 148.24504 | 39890 ft | 430 kts | 254° |
| 2026-05-08 03:14 | 37.74457 | 148.17193 | 39895 ft | 430 kts | 254° |
| 2026-05-08 03:14 | 37.72947 | 148.09890 | 39889 ft | 429 kts | 254° |
| 2026-05-08 03:15 | 37.71436 | 148.02606 | 39888 ft | 428 kts | 254° |
| 2026-05-08 03:15 | 37.69923 | 147.95340 | 39887 ft | 428 kts | 254° |
| 2026-05-08 03:16 | 37.68407 | 147.88080 | 39881 ft | 427 kts | 254° |
| 2026-05-08 03:16 | 37.66901 | 147.80893 | 39879 ft | 426 kts | 254° |
| 2026-05-08 03:17 | 37.65383 | 147.73674 | 39881 ft | 425 kts | 254° |
| 2026-05-08 03:17 | 37.63861 | 147.66461 | 39879 ft | 425 kts | 254° |
| 2026-05-08 03:18 | 37.62337 | 147.59261 | 39886 ft | 425 kts | 253° |
| 2026-05-08 03:18 | 37.60808 | 147.52058 | 39883 ft | 425 kts | 253° |
| 2026-05-08 03:19 | 37.59273 | 147.44851 | 39884 ft | 425 kts | 253° |
| 2026-05-08 03:19 | 37.57743 | 147.37691 | 39871 ft | 425 kts | 253° |
| 2026-05-08 03:20 | 37.56201 | 147.30501 | 39872 ft | 425 kts | 253° |
| 2026-05-08 03:20 | 37.54655 | 147.23315 | 39868 ft | 425 kts | 253° |
| 2026-05-08 03:21 | 37.53104 | 147.16128 | 39872 ft | 425 kts | 253° |
| 2026-05-08 03:21 | 37.51550 | 147.08950 | 39869 ft | 425 kts | 253° |
| 2026-05-08 03:22 | 37.50002 | 147.01821 | 39868 ft | 424 kts | 253° |
| 2026-05-08 03:22 | 37.48441 | 146.94656 | 39859 ft | 424 kts | 253° |
| 2026-05-08 03:23 | 37.46875 | 146.87492 | 39857 ft | 424 kts | 253° |
| 2026-05-08 03:23 | 37.45306 | 146.80337 | 39857 ft | 424 kts | 253° |
| 2026-05-08 03:24 | 37.44000 | 146.74400 | 39860 ft | 423 kts | 253° |
| 2026-05-08 03:24 | 37.42425 | 146.67259 | 39858 ft | 423 kts | 253° |
| 2026-05-08 03:25 | 37.40846 | 146.60119 | 39855 ft | 423 kts | 253° |
| 2026-05-08 03:25 | 37.39261 | 146.52981 | 39855 ft | 423 kts | 253° |
| 2026-05-08 03:26 | 37.37675 | 146.45854 | 39854 ft | 423 kts | 253° |
| 2026-05-08 03:26 | 37.36094 | 146.38775 | 39852 ft | 423 kts | 253° |
| 2026-05-08 03:27 | 37.34497 | 146.31646 | 39859 ft | 423 kts | 253° |
| 2026-05-08 03:27 | 37.32894 | 146.24513 | 39860 ft | 424 kts | 253° |
| 2026-05-08 03:28 | 37.31287 | 146.17382 | 39843 ft | 424 kts | 253° |
| 2026-05-08 03:28 | 37.29677 | 146.10263 | 39849 ft | 423 kts | 253° |
| 2026-05-08 03:29 | 37.28067 | 146.03161 | 39847 ft | 423 kts | 252° |
| 2026-05-08 03:29 | 37.26463 | 145.96108 | 39840 ft | 423 kts | 252° |
| 2026-05-08 03:30 | 37.24031 | 145.85459 | 39840 ft | 423 kts | 252° |
| 2026-05-08 03:31 | 37.20779 | 145.71282 | 39836 ft | 423 kts | 252° |
| 2026-05-08 03:32 | 37.18021 | 145.60785 | 39835 ft | 422 kts | 249° |
| 2026-05-08 03:32 | 37.15972 | 145.53933 | 39835 ft | 422 kts | 249° |
| 2026-05-08 03:33 | 37.13910 | 145.47034 | 39835 ft | 422 kts | 249° |
| 2026-05-08 03:33 | 37.11842 | 145.40094 | 39834 ft | 422 kts | 249° |
| 2026-05-08 03:34 | 37.09801 | 145.33246 | 39835 ft | 422 kts | 249° |
| 2026-05-08 03:34 | 37.07742 | 145.26354 | 39836 ft | 422 kts | 249° |
| 2026-05-08 03:35 | 37.05679 | 145.19463 | 39831 ft | 422 kts | 249° |
| 2026-05-08 03:35 | 37.03611 | 145.12576 | 39831 ft | 422 kts | 249° |
| 2026-05-08 03:36 | 37.01541 | 145.05696 | 39829 ft | 422 kts | 249° |
| 2026-05-08 03:36 | 36.99468 | 144.98827 | 39836 ft | 422 kts | 248° |
| 2026-05-08 03:37 | 36.97394 | 144.91968 | 39829 ft | 421 kts | 248° |
| 2026-05-08 03:37 | 36.95317 | 144.85119 | 39832 ft | 421 kts | 248° |
| 2026-05-08 03:38 | 36.93181 | 144.78091 | 39826 ft | 421 kts | 248° |
| 2026-05-08 03:38 | 36.91097 | 144.71250 | 39821 ft | 420 kts | 248° |
| 2026-05-08 03:39 | 36.89013 | 144.64427 | 39824 ft | 420 kts | 248° |
| 2026-05-08 03:39 | 36.86928 | 144.57615 | 39823 ft | 419 kts | 248° |
| 2026-05-08 03:40 | 36.84842 | 144.50816 | 39821 ft | 419 kts | 248° |
| 2026-05-08 03:40 | 36.82752 | 144.44022 | 39830 ft | 418 kts | 248° |
| 2026-05-08 03:41 | 36.80664 | 144.37246 | 39823 ft | 418 kts | 248° |
| 2026-05-08 03:41 | 36.78572 | 144.30487 | 39817 ft | 417 kts | 248° |
| 2026-05-08 03:42 | 36.76485 | 144.23786 | 39821 ft | 417 kts | 248° |
| 2026-05-08 03:42 | 36.74385 | 144.17057 | 39825 ft | 416 kts | 248° |
| 2026-05-08 03:43 | 36.72287 | 144.10344 | 39817 ft | 415 kts | 248° |
| 2026-05-08 03:43 | 36.70187 | 144.03639 | 39823 ft | 415 kts | 248° |
| 2026-05-08 03:44 | 36.68086 | 143.96944 | 39819 ft | 415 kts | 248° |
| 2026-05-08 03:44 | 36.65980 | 143.90249 | 39817 ft | 415 kts | 248° |
| 2026-05-08 03:45 | 36.63868 | 143.83553 | 39821 ft | 415 kts | 247° |
| 2026-05-08 03:45 | 36.61763 | 143.76899 | 39823 ft | 415 kts | 247° |
| 2026-05-08 03:46 | 36.59641 | 143.70207 | 39811 ft | 415 kts | 247° |
| 2026-05-08 03:46 | 36.57520 | 143.63530 | 39815 ft | 415 kts | 247° |
| 2026-05-08 03:47 | 36.55395 | 143.56857 | 39814 ft | 415 kts | 247° |
| 2026-05-08 03:47 | 36.53269 | 143.50194 | 39819 ft | 415 kts | 247° |
| 2026-05-08 03:48 | 36.51139 | 143.43531 | 39817 ft | 414 kts | 247° |
| 2026-05-08 03:48 | 36.49008 | 143.36884 | 39814 ft | 413 kts | 247° |
| 2026-05-08 03:49 | 36.46878 | 143.30255 | 39815 ft | 413 kts | 247° |
| 2026-05-08 03:49 | 36.44745 | 143.23630 | 39814 ft | 413 kts | 247° |
| 2026-05-08 03:50 | 36.42624 | 143.17057 | 39813 ft | 412 kts | 247° |
| 2026-05-08 03:50 | 36.40490 | 143.10459 | 39812 ft | 412 kts | 246° |
| 2026-05-08 03:51 | 36.38352 | 143.03864 | 39815 ft | 411 kts | 246° |
| 2026-05-08 03:51 | 36.36212 | 142.97278 | 39820 ft | 411 kts | 246° |
| 2026-05-08 03:52 | 36.34074 | 142.90711 | 39813 ft | 410 kts | 246° |
| 2026-05-08 03:52 | 36.31933 | 142.84149 | 39817 ft | 410 kts | 246° |
| 2026-05-08 03:53 | 36.29786 | 142.77585 | 39818 ft | 410 kts | 246° |
| 2026-05-08 03:53 | 36.27651 | 142.71071 | 39524 ft | 414 kts | 246° |
| 2026-05-08 03:53 | 36.26557 | 142.67741 | 38902 ft | 417 kts | 246° |
| 2026-05-08 03:54 | 36.25462 | 142.64408 | 38202 ft | 417 kts | 246° |
| 2026-05-08 03:54 | 36.24366 | 142.61078 | 37415 ft | 417 kts | 246° |
| 2026-05-08 03:54 | 36.23273 | 142.57758 | 36653 ft | 416 kts | 246° |
| 2026-05-08 03:54 | 36.22178 | 142.54435 | 35889 ft | 417 kts | 246° |
| 2026-05-08 03:55 | 36.21077 | 142.51100 | 35075 ft | 419 kts | 246° |
| 2026-05-08 03:55 | 36.19957 | 142.47747 | 34206 ft | 423 kts | 244° |
| 2026-05-08 03:55 | 36.18604 | 142.44505 | 33224 ft | 426 kts | 238° |
| 2026-05-08 03:55 | 36.16992 | 142.41411 | 32252 ft | 429 kts | 235° |
| 2026-05-08 03:56 | 36.15232 | 142.38446 | 31562 ft | 425 kts | 232° |
| 2026-05-08 03:56 | 36.13281 | 142.35708 | 30872 ft | 422 kts | 228° |
| 2026-05-08 03:56 | 36.11263 | 142.33094 | 30196 ft | 418 kts | 227° |
| 2026-05-08 03:56 | 36.09261 | 142.30522 | 29426 ft | 406 kts | 227° |
| 2026-05-08 03:57 | 36.07325 | 142.28033 | 28643 ft | 399 kts | 227° |
| 2026-05-08 03:57 | 36.05437 | 142.25596 | 27920 ft | 396 kts | 228° |
| 2026-05-08 03:57 | 36.03549 | 142.23151 | 27219 ft | 392 kts | 228° |
| 2026-05-08 03:57 | 36.01675 | 142.20721 | 26476 ft | 388 kts | 228° |
| 2026-05-08 03:58 | 35.99821 | 142.18315 | 25800 ft | 385 kts | 227° |
| 2026-05-08 03:58 | 35.97984 | 142.15929 | 25124 ft | 382 kts | 227° |
| 2026-05-08 03:58 | 35.96160 | 142.13564 | 24442 ft | 379 kts | 227° |
| 2026-05-08 03:58 | 35.94343 | 142.11208 | 23755 ft | 378 kts | 227° |
| 2026-05-08 03:59 | 35.92534 | 142.08864 | 22993 ft | 376 kts | 227° |
| 2026-05-08 03:59 | 35.90737 | 142.06538 | 22237 ft | 373 kts | 227° |
| 2026-05-08 03:59 | 35.88957 | 142.04236 | 21572 ft | 369 kts | 227° |
| 2026-05-08 03:59 | 35.87199 | 142.01962 | 20893 ft | 365 kts | 227° |
| 2026-05-08 04:00 | 35.85454 | 141.99707 | 20248 ft | 361 kts | 227° |
| 2026-05-08 04:00 | 35.83726 | 141.97478 | 19609 ft | 358 kts | 227° |
| 2026-05-08 04:00 | 35.82589 | 141.96012 | 19197 ft | 355 kts | 227° |
| 2026-05-08 04:00 | 35.80673 | 141.92843 | 18377 ft | 348 kts | 240° |
| 2026-05-08 04:01 | 35.79658 | 141.90142 | 17716 ft | 347 kts | 246° |
| 2026-05-08 04:01 | 35.78893 | 141.87333 | 17076 ft | 346 kts | 253° |
| 2026-05-08 04:01 | 35.78631 | 141.85397 | 16667 ft | 346 kts | 259° |
| 2026-05-08 04:01 | 35.78269 | 141.81461 | 15732 ft | 346 kts | 259° |
| 2026-05-08 04:02 | 35.77967 | 141.78523 | 15222 ft | 347 kts | 258° |
| 2026-05-08 04:02 | 35.77768 | 141.76567 | 15108 ft | 348 kts | 259° |
| 2026-05-08 04:02 | 35.77623 | 141.73580 | 14890 ft | 349 kts | 264° |
| 2026-05-08 04:02 | 35.77579 | 141.70607 | 14846 ft | 346 kts | 264° |
| 2026-05-08 04:03 | 35.77527 | 141.67640 | 14813 ft | 348 kts | 264° |
| 2026-05-08 04:03 | 35.77411 | 141.61672 | 14800 ft | 348 kts | 264° |
| 2026-05-08 04:03 | 35.77362 | 141.58689 | 14792 ft | 349 kts | 265° |
| 2026-05-08 04:04 | 35.77502 | 141.55691 | 14747 ft | 352 kts | 269° |
| 2026-05-08 04:04 | 35.77723 | 141.52684 | 14625 ft | 353 kts | 270° |
| 2026-05-08 04:04 | 35.77951 | 141.49680 | 14507 ft | 351 kts | 270° |
| 2026-05-08 04:04 | 35.78175 | 141.46693 | 14388 ft | 350 kts | 270° |
| 2026-05-08 04:05 | 35.78393 | 141.43709 | 14270 ft | 349 kts | 270° |
| 2026-05-08 04:05 | 35.78604 | 141.40767 | 14157 ft | 349 kts | 270° |
| 2026-05-08 04:05 | 35.78813 | 141.37794 | 14039 ft | 348 kts | 269° |
| 2026-05-08 04:05 | 35.79020 | 141.34821 | 13929 ft | 348 kts | 269° |
| 2026-05-08 04:06 | 35.79225 | 141.31847 | 13811 ft | 348 kts | 270° |
| 2026-05-08 04:06 | 35.79428 | 141.28870 | 13696 ft | 347 kts | 270° |
| 2026-05-08 04:06 | 35.79630 | 141.25910 | 13571 ft | 347 kts | 270° |
| 2026-05-08 04:06 | 35.79830 | 141.22949 | 13450 ft | 347 kts | 270° |
| 2026-05-08 04:07 | 35.80030 | 141.19993 | 13313 ft | 346 kts | 270° |
| 2026-05-08 04:07 | 35.80228 | 141.17055 | 13223 ft | 340 kts | 270° |
| 2026-05-08 04:07 | 35.80423 | 141.14186 | 13101 ft | 333 kts | 270° |
| 2026-05-08 04:07 | 35.80610 | 141.11396 | 12778 ft | 330 kts | 270° |
| 2026-05-08 04:08 | 35.80796 | 141.08592 | 12232 ft | 328 kts | 270° |
| 2026-05-08 04:08 | 35.80980 | 141.05802 | 11702 ft | 325 kts | 270° |
| 2026-05-08 04:08 | 35.81162 | 141.03030 | 11172 ft | 323 kts | 270° |
| 2026-05-08 04:08 | 35.81343 | 141.00275 | 10710 ft | 320 kts | 270° |
| 2026-05-08 04:09 | 35.81520 | 140.97606 | 10585 ft | 306 kts | 270° |
| 2026-05-08 04:09 | 35.81691 | 140.95038 | 10437 ft | 294 kts | 270° |
| 2026-05-08 04:09 | 35.81853 | 140.92574 | 10308 ft | 283 kts | 270° |
| 2026-05-08 04:09 | 35.82008 | 140.90203 | 10188 ft | 272 kts | 270° |
| 2026-05-08 04:10 | 35.82156 | 140.87925 | 10071 ft | 262 kts | 269° |
| 2026-05-08 04:10 | 35.82297 | 140.85729 | 9891 ft | 254 kts | 269° |
| 2026-05-08 04:10 | 35.82435 | 140.83563 | 9567 ft | 252 kts | 269° |
| 2026-05-08 04:10 | 35.82570 | 140.81415 | 9231 ft | 251 kts | 269° |
| 2026-05-08 04:11 | 35.82705 | 140.79283 | 8897 ft | 249 kts | 269° |
| 2026-05-08 04:11 | 35.82840 | 140.77157 | 8576 ft | 248 kts | 269° |
| 2026-05-08 04:11 | 35.82972 | 140.75077 | 8254 ft | 246 kts | 270° |
| 2026-05-08 04:11 | 35.83106 | 140.72956 | 7934 ft | 244 kts | 270° |
| 2026-05-08 04:12 | 35.83236 | 140.70901 | 7626 ft | 243 kts | 270° |
| 2026-05-08 04:12 | 35.83367 | 140.68824 | 7306 ft | 243 kts | 270° |
| 2026-05-08 04:12 | 35.83497 | 140.66753 | 6993 ft | 242 kts | 270° |
| 2026-05-08 04:12 | 35.83627 | 140.64688 | 6689 ft | 241 kts | 270° |
| 2026-05-08 04:13 | 35.83756 | 140.62627 | 6374 ft | 240 kts | 270° |
| 2026-05-08 04:13 | 35.83916 | 140.60592 | 6051 ft | 237 kts | 278° |
| 2026-05-08 04:13 | 35.84659 | 140.58763 | 5885 ft | 248 kts | 303° |
| 2026-05-08 04:13 | 35.85792 | 140.57062 | 5725 ft | 262 kts | 304° |
| 2026-05-08 04:14 | 35.86946 | 140.55304 | 5515 ft | 263 kts | 303° |
| 2026-05-08 04:14 | 35.88092 | 140.53557 | 5319 ft | 261 kts | 304° |
| 2026-05-08 04:14 | 35.89232 | 140.51830 | 5180 ft | 259 kts | 304° |
| 2026-05-08 04:14 | 35.90370 | 140.50101 | 5009 ft | 260 kts | 304° |
| 2026-05-08 04:15 | 35.91508 | 140.48368 | 4830 ft | 260 kts | 304° |
| 2026-05-08 04:15 | 35.92650 | 140.46629 | 4664 ft | 261 kts | 305° |
| 2026-05-08 04:15 | 35.93795 | 140.44884 | 4493 ft | 262 kts | 304° |
| 2026-05-08 04:15 | 35.94944 | 140.43133 | 4307 ft | 262 kts | 305° |
| 2026-05-08 04:16 | 35.96091 | 140.41384 | 4145 ft | 262 kts | 304° |
| 2026-05-08 04:16 | 35.97193 | 140.39608 | 3991 ft | 257 kts | 302° |
| 2026-05-08 04:16 | 35.98228 | 140.37878 | 3803 ft | 251 kts | 302° |
| 2026-05-08 04:16 | 35.99253 | 140.36167 | 3640 ft | 244 kts | 302° |
| 2026-05-08 04:17 | 36.00255 | 140.34499 | 3468 ft | 239 kts | 302° |
| 2026-05-08 04:17 | 36.01231 | 140.32878 | 3313 ft | 231 kts | 302° |
| 2026-05-08 04:17 | 36.02171 | 140.31320 | 3174 ft | 221 kts | 302° |
| 2026-05-08 04:17 | 36.03065 | 140.29839 | 3116 ft | 208 kts | 301° |
| 2026-05-08 04:18 | 36.03607 | 140.28318 | 2983 ft | 184 kts | 269° |
| 2026-05-08 04:18 | 36.03583 | 140.26780 | 2979 ft | 177 kts | 264° |
| 2026-05-08 04:18 | 36.03591 | 140.25306 | 2949 ft | 169 kts | 254° |
| 2026-05-08 04:18 | 36.02918 | 140.24188 | 2960 ft | 169 kts | 204° |
| 2026-05-08 04:19 | 36.01744 | 140.24008 | 2978 ft | 172 kts | 181° |
| 2026-05-08 04:19 | 36.00537 | 140.24023 | 2975 ft | 173 kts | 182° |
| 2026-05-08 04:19 | 35.99376 | 140.24338 | 2958 ft | 173 kts | 159° |
| 2026-05-08 04:19 | 35.98290 | 140.24997 | 2962 ft | 176 kts | 158° |
| 2026-05-08 04:20 | 35.97205 | 140.25715 | 2963 ft | 177 kts | 155° |
| 2026-05-08 04:20 | 35.96145 | 140.26463 | 2967 ft | 179 kts | 154° |
| 2026-05-08 04:20 | 35.95069 | 140.27241 | 2969 ft | 179 kts | 154° |
| 2026-05-08 04:20 | 35.94013 | 140.28011 | 2952 ft | 170 kts | 155° |
| 2026-05-08 04:21 | 35.93043 | 140.28719 | 2898 ft | 157 kts | 155° |
| 2026-05-08 04:21 | 35.92127 | 140.29383 | 2713 ft | 150 kts | 155° |
| 2026-05-08 04:21 | 35.91225 | 140.30037 | 2518 ft | 152 kts | 155° |
| 2026-05-08 04:21 | 35.90314 | 140.30701 | 2323 ft | 150 kts | 155° |
| 2026-05-08 04:22 | 35.89425 | 140.31347 | 2129 ft | 148 kts | 155° |
| 2026-05-08 04:22 | 35.88530 | 140.31997 | 1939 ft | 150 kts | 156° |
| 2026-05-08 04:22 | 35.87642 | 140.32644 | 1735 ft | 146 kts | 156° |
| 2026-05-08 04:22 | 35.86778 | 140.33270 | 1539 ft | 140 kts | 154° |
| 2026-05-08 04:23 | 35.85965 | 140.33864 | 1377 ft | 132 kts | 154° |
| 2026-05-08 04:23 | 35.85181 | 140.34432 | 1225 ft | 132 kts | 154° |
| 2026-05-08 04:23 | 35.84376 | 140.35018 | 1019 ft | 138 kts | 155° |
| 2026-05-08 04:23 | 35.83551 | 140.35616 | 830 ft | 140 kts | 154° |
| 2026-05-08 04:24 | 35.82715 | 140.36225 | 743 ft | 138 kts | 152° |
| 2026-05-08 04:24 | 35.81886 | 140.36822 | 514 ft | 140 kts | 151° |
| 2026-05-08 04:24 | 35.81007 | 140.37461 | 307 ft | 149 kts | 154° |
| 2026-05-08 04:24 | 35.80134 | 140.38088 | 157 ft | 140 kts | 153° |
| 2026-05-08 04:25 | 35.79421 | 140.38602 | 148 ft | 88 kts | 149° |
| 2026-05-08 04:25 | 35.79014 | 140.38897 | 149 ft | 49 kts | 149° |
| 2026-05-08 04:25 | 35.78763 | 140.39049 | 146 ft | 33 kts | 165° |
| 2026-05-08 04:25 | 35.78549 | 140.39090 | 148 ft | 29 kts | 168° |
| 2026-05-08 04:26 | 35.78357 | 140.39143 | 148 ft | 26 kts | 165° |
| 2026-05-08 04:26 | 35.78225 | 140.39185 | 148 ft | 11 kts | 165° |
| 2026-05-08 04:26 | 35.78150 | 140.39185 | 148 ft | 11 kts | 207° |
| 2026-05-08 04:26 | 35.78105 | 140.39120 | 148 ft | 11 kts | 238° |
| 2026-05-08 04:27 | 35.78069 | 140.39046 | 148 ft | 11 kts | 241° |
| 2026-05-08 04:27 | 35.78056 | 140.38954 | 148 ft | 11 kts | 280° |
| 2026-05-08 04:27 | 35.78077 | 140.38863 | 148 ft | 11 kts | 282° |
| 2026-05-08 04:27 | 35.78054 | 140.38777 | 148 ft | 11 kts | 230° |
| 2026-05-08 04:28 | 35.77999 | 140.38711 | 148 ft | 11 kts | 224° |
| 2026-05-08 04:28 | 35.77940 | 140.38681 | 148 ft | 10 kts | 171° |
| 2026-05-08 04:28 | 35.77880 | 140.38720 | 148 ft | 10 kts | 150° |
| 2026-05-08 04:28 | 35.77822 | 140.38761 | 148 ft | 10 kts | 150° |
| 2026-05-08 04:29 | 35.77764 | 140.38803 | 148 ft | 10 kts | 149° |
| 2026-05-08 04:29 | 35.77707 | 140.38845 | 148 ft | 10 kts | 149° |
| 2026-05-08 04:29 | 35.77660 | 140.38846 | 148 ft | 7 kts | 219° |
| 2026-05-08 04:29 | 35.77636 | 140.38804 | 148 ft | 5 kts | 239° |
| 2026-05-08 04:30 | 35.77628 | 140.38785 | 148 ft | 1 kts | 239° |
| 2026-05-08 04:30 | 35.77626 | 140.38782 | 148 ft | 0 kts | 239° |